sensor_id;sensor_type;location;lat;lon;timestamp;pressure;altitude;pressure_sealevel;temperature;humidity
49393;BME280;35268;42.642;23.308;2023-06-10T00:01:41;93580.31;;;17.36;83.81
49393;BME280;35268;42.642;23.308;2023-06-10T00:04:08;93584.19;;;17.39;85.00
49393;BME280;35268;42.642;23.308;2023-06-10T00:06:34;93591.13;;;17.40;85.46
49393;BME280;35268;42.642;23.308;2023-06-10T00:09:03;93588.81;;;17.38;86.00
49393;BME280;35268;42.642;23.308;2023-06-10T00:11:36;93585.72;;;17.36;85.09
49393;BME280;35268;42.642;23.308;2023-06-10T00:14:02;93583.72;;;17.33;84.83
49393;BME280;35268;42.642;23.308;2023-06-10T00:16:28;93585.59;;;17.29;84.32
49393;BME280;35268;42.642;23.308;2023-06-10T00:18:53;93582.53;;;17.31;84.89
49393;BME280;35268;42.642;23.308;2023-06-10T00:21:21;93581.81;;;17.34;85.34
49393;BME280;35268;42.642;23.308;2023-06-10T00:23:47;93581.78;;;17.30;84.89
49393;BME280;35268;42.642;23.308;2023-06-10T00:26:12;93584.75;;;17.25;84.78
49393;BME280;35268;42.642;23.308;2023-06-10T00:28:38;93580.34;;;17.13;85.00
49393;BME280;35268;42.642;23.308;2023-06-10T00:31:03;93589.50;;;17.09;85.49
49393;BME280;35268;42.642;23.308;2023-06-10T00:33:30;93584.38;;;17.00;86.12
49393;BME280;35268;42.642;23.308;2023-06-10T00:35:56;93591.66;;;16.99;86.67
49393;BME280;35268;42.642;23.308;2023-06-10T00:38:21;93580.47;;;16.97;86.40
49393;BME280;35268;42.642;23.308;2023-06-10T00:40:47;93582.75;;;16.95;86.99
49393;BME280;35268;42.642;23.308;2023-06-10T00:43:12;93581.97;;;16.95;87.22
49393;BME280;35268;42.642;23.308;2023-06-10T00:45:38;93587.41;;;16.98;87.63
49393;BME280;35268;42.642;23.308;2023-06-10T00:48:03;93584.00;;;17.01;87.37
49393;BME280;35268;42.642;23.308;2023-06-10T00:50:29;93582.81;;;16.99;87.24
49393;BME280;35268;42.642;23.308;2023-06-10T00:52:56;93581.28;;;17.01;87.88
49393;BME280;35268;42.642;23.308;2023-06-10T00:55:22;93587.09;;;17.03;87.63
49393;BME280;35268;42.642;23.308;2023-06-10T00:57:48;93584.72;;;16.98;87.47
49393;BME280;35268;42.642;23.308;2023-06-10T01:00:15;93578.91;;;16.96;87.79
49393;BME280;35268;42.642;23.308;2023-06-10T01:02:41;93589.75;;;17.00;88.59
49393;BME280;35268;42.642;23.308;2023-06-10T01:05:08;93584.72;;;16.98;88.40
49393;BME280;35268;42.642;23.308;2023-06-10T01:10:32;93587.41;;;16.98;88.33
49393;BME280;35268;42.642;23.308;2023-06-10T01:13:00;93590.19;;;17.02;88.68
49393;BME280;35268;42.642;23.308;2023-06-10T01:15:29;93588.97;;;16.99;87.97
49393;BME280;35268;42.642;23.308;2023-06-10T01:18:00;93590.19;;;17.02;88.12
49393;BME280;35268;42.642;23.308;2023-06-10T01:20:27;93595.97;;;17.04;87.51
49393;BME280;35268;42.642;23.308;2023-06-10T01:22:56;93596.75;;;17.04;87.63
49393;BME280;35268;42.642;23.308;2023-06-10T01:25:23;93593.63;;;17.02;88.00
49393;BME280;35268;42.642;23.308;2023-06-10T01:27:54;93593.63;;;17.02;88.35
49393;BME280;35268;42.642;23.308;2023-06-10T01:30:27;93592.06;;;17.01;87.63
49393;BME280;35268;42.642;23.308;2023-06-10T01:32:56;93594.31;;;16.96;87.68
49393;BME280;35268;42.642;23.308;2023-06-10T01:35:25;93588.53;;;16.97;87.46
49393;BME280;35268;42.642;23.308;2023-06-10T01:37:53;93592.81;;;16.98;87.45
49393;BME280;35268;42.642;23.308;2023-06-10T01:40:19;93588.97;;;16.99;87.44
49393;BME280;35268;42.642;23.308;2023-06-10T01:42:45;93587.84;;;17.00;87.25
49393;BME280;35268;42.642;23.308;2023-06-10T01:45:11;93589.78;;;17.03;87.32
49393;BME280;35268;42.642;23.308;2023-06-10T01:47:36;93587.97;;;17.08;87.35
49393;BME280;35268;42.642;23.308;2023-06-10T01:50:02;93585.31;;;17.11;87.28
49393;BME280;35268;42.642;23.308;2023-06-10T01:52:28;93582.19;;;17.09;87.14
49393;BME280;35268;42.642;23.308;2023-06-10T01:54:53;93591.06;;;17.10;87.38
49393;BME280;35268;42.642;23.308;2023-06-10T01:57:18;93581.00;;;17.07;87.13
49393;BME280;35268;42.642;23.308;2023-06-10T01:59:44;93572.94;;;17.07;87.27
49393;BME280;35268;42.642;23.308;2023-06-10T02:02:11;93583.41;;;17.12;87.43
49393;BME280;35268;42.642;23.308;2023-06-10T02:04:36;93574.25;;;17.16;87.40
49393;BME280;35268;42.642;23.308;2023-06-10T02:07:02;93570.03;;;17.19;87.23
49393;BME280;35268;42.642;23.308;2023-06-10T02:09:30;93567.06;;;17.24;87.28
49393;BME280;35268;42.642;23.308;2023-06-10T02:11:55;93569.00;;;17.27;87.40
49393;BME280;35268;42.642;23.308;2023-06-10T02:14:21;93567.16;;;17.31;87.59
49393;BME280;35268;42.642;23.308;2023-06-10T02:16:46;93569.44;;;17.29;87.94
49393;BME280;35268;42.642;23.308;2023-06-10T02:19:13;93559.06;;;17.31;87.43
49393;BME280;35268;42.642;23.308;2023-06-10T02:21:38;93562.53;;;17.32;87.24
49393;BME280;35268;42.642;23.308;2023-06-10T02:24:04;93554.91;;;17.37;86.88
49393;BME280;35268;42.642;23.308;2023-06-10T02:26:30;93554.91;;;17.37;86.68
49393;BME280;35268;42.642;23.308;2023-06-10T02:28:57;93551.00;;;17.31;85.03
49393;BME280;35268;42.642;23.308;2023-06-10T02:31:22;93547.47;;;17.27;84.79
49393;BME280;35268;42.642;23.308;2023-06-10T02:33:49;93549.81;;;17.29;84.92
49393;BME280;35268;42.642;23.308;2023-06-10T02:36:15;93540.53;;;17.26;84.18
49393;BME280;35268;42.642;23.308;2023-06-10T02:38:41;93549.81;;;17.29;84.57
49393;BME280;35268;42.642;23.308;2023-06-10T02:41:07;93548.66;;;17.30;85.94
49393;BME280;35268;42.642;23.308;2023-06-10T02:43:32;93552.50;;;17.29;84.64
49393;BME280;35268;42.642;23.308;2023-06-10T02:45:57;93548.28;;;17.31;84.43
49393;BME280;35268;42.642;23.308;2023-06-10T02:48:27;93539.50;;;17.34;84.18
49393;BME280;35268;42.642;23.308;2023-06-10T02:50:53;93541.03;;;17.35;84.15
49393;BME280;35268;42.642;23.308;2023-06-10T02:53:18;93536.47;;;17.39;84.14
49393;BME280;35268;42.642;23.308;2023-06-10T02:55:44;93538.06;;;17.44;84.34
49393;BME280;35268;42.642;23.308;2023-06-10T02:58:09;93532.31;;;17.45;84.58
49393;BME280;35268;42.642;23.308;2023-06-10T03:00:34;93540.06;;;17.47;84.54
49393;BME280;35268;42.642;23.308;2023-06-10T03:03:01;93545.50;;;17.51;84.96
49393;BME280;35268;42.642;23.308;2023-06-10T03:05:29;93542.81;;;17.51;84.86
49393;BME280;35268;42.642;23.308;2023-06-10T03:07:54;93535.44;;;17.48;84.86
49393;BME280;35268;42.642;23.308;2023-06-10T03:10:20;93546.94;;;17.44;84.02
49393;BME280;35268;42.642;23.308;2023-06-10T03:12:46;93550.38;;;17.41;84.17
49393;BME280;35268;42.642;23.308;2023-06-10T03:15:11;93548.84;;;17.44;84.20
49393;BME280;35268;42.642;23.308;2023-06-10T03:17:37;93548.50;;;17.45;85.10
49393;BME280;35268;42.642;23.308;2023-06-10T03:20:03;93549.69;;;17.48;85.87
49393;BME280;35268;42.642;23.308;2023-06-10T03:22:30;93554.72;;;17.50;84.61
49393;BME280;35268;42.642;23.308;2023-06-10T03:24:56;93555.06;;;17.48;84.11
49393;BME280;35268;42.642;23.308;2023-06-10T03:27:22;93552.75;;;17.47;84.47
49393;BME280;35268;42.642;23.308;2023-06-10T03:29:48;93560.84;;;17.47;85.00
49393;BME280;35268;42.642;23.308;2023-06-10T03:32:13;93566.63;;;17.49;84.50
49393;BME280;35268;42.642;23.308;2023-06-10T03:34:40;93570.09;;;17.49;85.11
49393;BME280;35268;42.642;23.308;2023-06-10T03:37:06;93569.97;;;17.38;84.63
49393;BME280;35268;42.642;23.308;2023-06-10T03:39:32;93577.91;;;17.31;85.83
49393;BME280;35268;42.642;23.308;2023-06-10T03:41:58;93580.94;;;17.26;86.42
49393;BME280;35268;42.642;23.308;2023-06-10T03:44:24;93576.25;;;17.23;86.91
49393;BME280;35268;42.642;23.308;2023-06-10T03:46:51;93577.00;;;17.20;87.26
49393;BME280;35268;42.642;23.308;2023-06-10T03:49:17;93573.50;;;17.19;86.83
49393;BME280;35268;42.642;23.308;2023-06-10T03:51:42;93573.47;;;17.16;86.79
49393;BME280;35268;42.642;23.308;2023-06-10T03:54:08;93569.47;;;17.06;86.95
49393;BME280;35268;42.642;23.308;2023-06-10T03:56:34;93570.91;;;17.00;87.55
49393;BME280;35268;42.642;23.308;2023-06-10T03:59:00;93569.34;;;16.99;87.79
49393;BME280;35268;42.642;23.308;2023-06-10T04:01:25;93566.59;;;16.95;87.96
49393;BME280;35268;42.642;23.308;2023-06-10T04:03:51;93561.19;;;16.95;88.36
49393;BME280;35268;42.642;23.308;2023-06-10T04:06:19;93562.34;;;16.94;88.04
49393;BME280;35268;42.642;23.308;2023-06-10T04:08:45;93567.00;;;16.97;88.10
49393;BME280;35268;42.642;23.308;2023-06-10T04:11:10;93564.38;;;17.01;88.58
49393;BME280;35268;42.642;23.308;2023-06-10T04:13:36;93559.06;;;17.04;88.01
49393;BME280;35268;42.642;23.308;2023-06-10T04:16:04;93561.03;;;17.08;87.31
49393;BME280;35268;42.642;23.308;2023-06-10T04:18:32;93566.09;;;17.13;87.77
49393;BME280;35268;42.642;23.308;2023-06-10T04:20:57;93577.00;;;17.20;87.57
49393;BME280;35268;42.642;23.308;2023-06-10T04:23:23;93578.66;;;17.28;87.56
49393;BME280;35268;42.642;23.308;2023-06-10T04:25:48;93578.34;;;17.33;87.14
49393;BME280;35268;42.642;23.308;2023-06-10T04:28:14;93573.47;;;17.42;86.21
49393;BME280;35268;42.642;23.308;2023-06-10T04:30:39;93580.13;;;17.49;87.00
49393;BME280;35268;42.642;23.308;2023-06-10T04:33:05;93581.34;;;17.55;86.04
49393;BME280;35268;42.642;23.308;2023-06-10T04:35:32;93582.19;;;17.59;86.03
49393;BME280;35268;42.642;23.308;2023-06-10T04:37:58;93575.75;;;17.67;86.33
49393;BME280;35268;42.642;23.308;2023-06-10T04:40:23;93576.66;;;17.78;86.66
49393;BME280;35268;42.642;23.308;2023-06-10T04:42:49;93576.03;;;17.89;86.99
49393;BME280;35268;42.642;23.308;2023-06-10T04:45:14;93572.69;;;17.99;87.04
49393;BME280;35268;42.642;23.308;2023-06-10T04:47:40;93577.44;;;18.09;86.01
49393;BME280;35268;42.642;23.308;2023-06-10T04:50:06;93575.97;;;18.15;85.68
49393;BME280;35268;42.642;23.308;2023-06-10T04:52:31;93571.81;;;18.21;85.38
49393;BME280;35268;42.642;23.308;2023-06-10T04:54:58;93574.59;;;18.29;84.60
49393;BME280;35268;42.642;23.308;2023-06-10T04:57:24;93573.13;;;18.35;84.56
49393;BME280;35268;42.642;23.308;2023-06-10T04:59:50;93570.91;;;18.44;84.86
49393;BME280;35268;42.642;23.308;2023-06-10T05:02:15;93576.34;;;18.48;85.07
49393;BME280;35268;42.642;23.308;2023-06-10T05:04:41;93572.56;;;18.52;84.88
49393;BME280;35268;42.642;23.308;2023-06-10T05:07:06;93567.97;;;18.56;84.81
49393;BME280;35268;42.642;23.308;2023-06-10T05:09:31;93577.94;;;18.52;83.04
49393;BME280;35268;42.642;23.308;2023-06-10T05:11:58;93581.72;;;18.48;83.26
49393;BME280;35268;42.642;23.308;2023-06-10T05:14:23;93577.13;;;18.48;83.53
49393;BME280;35268;42.642;23.308;2023-06-10T05:16:49;93573.28;;;18.49;84.20
49393;BME280;35268;42.642;23.308;2023-06-10T05:19:14;93573.28;;;18.49;83.67
49393;BME280;35268;42.642;23.308;2023-06-10T05:21:41;93576.75;;;18.50;83.28
49393;BME280;35268;42.642;23.308;2023-06-10T05:24:07;93564.81;;;18.51;83.88
49393;BME280;35268;42.642;23.308;2023-06-10T05:26:33;93575.63;;;18.51;83.77
49393;BME280;35268;42.642;23.308;2023-06-10T05:29:02;93574.84;;;18.50;83.50
49393;BME280;35268;42.642;23.308;2023-06-10T05:31:30;93576.38;;;18.51;83.46
49393;BME280;35268;42.642;23.308;2023-06-10T05:33:56;93577.94;;;18.52;82.86
49393;BME280;35268;42.642;23.308;2023-06-10T05:36:22;93573.63;;;18.44;84.54
49393;BME280;35268;42.642;23.308;2023-06-10T05:38:47;93578.63;;;18.45;84.51
49393;BME280;35268;42.642;23.308;2023-06-10T05:41:13;93573.22;;;18.45;84.96
49393;BME280;35268;42.642;23.308;2023-06-10T05:43:39;93576.38;;;18.51;83.98
49393;BME280;35268;42.642;23.308;2023-06-10T05:46:05;93581.78;;;18.51;84.28
49393;BME280;35268;42.642;23.308;2023-06-10T05:48:30;93587.63;;;18.57;84.14
49393;BME280;35268;42.642;23.308;2023-06-10T05:50:56;93590.38;;;18.60;84.08
49393;BME280;35268;42.642;23.308;2023-06-10T05:53:21;93586.50;;;18.61;83.20
49393;BME280;35268;42.642;23.308;2023-06-10T05:55:47;93584.25;;;18.67;83.43
49393;BME280;35268;42.642;23.308;2023-06-10T05:58:13;93582.69;;;18.66;83.71
49393;BME280;35268;42.642;23.308;2023-06-10T06:00:39;93589.69;;;18.71;83.81
49393;BME280;35268;42.642;23.308;2023-06-10T06:03:10;93595.50;;;18.73;82.75
49393;BME280;35268;42.642;23.308;2023-06-10T06:05:36;93591.59;;;18.67;82.88
49393;BME280;35268;42.642;23.308;2023-06-10T06:08:07;93594.28;;;18.67;83.35
49393;BME280;35268;42.642;23.308;2023-06-10T06:10:33;93599.34;;;18.72;84.46
49393;BME280;35268;42.642;23.308;2023-06-10T06:13:00;93602.00;;;18.68;83.53
49393;BME280;35268;42.642;23.308;2023-06-10T06:15:25;93590.97;;;18.80;83.58
49393;BME280;35268;42.642;23.308;2023-06-10T06:17:51;93590.69;;;18.93;84.54
49393;BME280;35268;42.642;23.308;2023-06-10T06:20:18;93590.06;;;19.10;84.31
49393;BME280;35268;42.642;23.308;2023-06-10T06:22:44;93587.53;;;19.28;82.97
49393;BME280;35268;42.642;23.308;2023-06-10T06:25:09;93578.75;;;19.42;81.50
49393;BME280;35268;42.642;23.308;2023-06-10T06:27:34;93581.91;;;19.55;81.08
49393;BME280;35268;42.642;23.308;2023-06-10T06:30:00;93593.16;;;19.64;78.97
49393;BME280;35268;42.642;23.308;2023-06-10T06:32:25;93594.38;;;19.70;77.59
49393;BME280;35268;42.642;23.308;2023-06-10T06:34:53;93584.75;;;19.73;77.58
49393;BME280;35268;42.642;23.308;2023-06-10T06:37:23;93591.66;;;19.67;76.09
49393;BME280;35268;42.642;23.308;2023-06-10T06:39:52;93593.91;;;19.61;76.77
49393;BME280;35268;42.642;23.308;2023-06-10T06:42:18;93590.03;;;19.55;77.06
49393;BME280;35268;42.642;23.308;2023-06-10T06:44:44;93586.88;;;19.49;76.84
49393;BME280;35268;42.642;23.308;2023-06-10T06:47:11;93588.03;;;19.44;76.81
49393;BME280;35268;42.642;23.308;2023-06-10T06:49:36;93575.31;;;19.49;76.90
49393;BME280;35268;42.642;23.308;2023-06-10T06:52:02;93584.94;;;19.46;77.66
49393;BME280;35268;42.642;23.308;2023-06-10T06:54:28;93583.41;;;19.49;77.51
49393;BME280;35268;42.642;23.308;2023-06-10T06:56:54;93584.19;;;19.49;76.93
49393;BME280;35268;42.642;23.308;2023-06-10T06:59:19;93580.75;;;19.56;75.54
49393;BME280;35268;42.642;23.308;2023-06-10T07:01:46;93571.91;;;19.59;76.72
49393;BME280;35268;42.642;23.308;2023-06-10T07:04:12;93574.88;;;19.43;76.40
49393;BME280;35268;42.642;23.308;2023-06-10T07:06:37;93574.22;;;19.60;76.37
49393;BME280;35268;42.642;23.308;2023-06-10T07:09:04;93576.97;;;19.68;76.13
49393;BME280;35268;42.642;23.308;2023-06-10T07:11:29;93570.88;;;19.74;75.80
49393;BME280;35268;42.642;23.308;2023-06-10T07:13:55;93577.06;;;19.78;72.60
49393;BME280;35268;42.642;23.308;2023-06-10T07:16:21;93574.03;;;19.87;72.35
49393;BME280;35268;42.642;23.308;2023-06-10T07:18:46;93567.50;;;19.95;71.62
49393;BME280;35268;42.642;23.308;2023-06-10T07:21:12;93556.72;;;20.06;71.20
49393;BME280;35268;42.642;23.308;2023-06-10T07:23:41;93566.81;;;20.16;67.84
49393;BME280;35268;42.642;23.308;2023-06-10T07:26:07;93557.53;;;20.21;68.66
49393;BME280;35268;42.642;23.308;2023-06-10T07:28:33;93559.88;;;20.26;69.85
49393;BME280;35268;42.642;23.308;2023-06-10T07:30:58;93562.66;;;20.44;69.52
49393;BME280;35268;42.642;23.308;2023-06-10T07:33:23;93561.53;;;20.59;68.96
49393;BME280;35268;42.642;23.308;2023-06-10T07:35:49;93559.25;;;20.72;67.67
49393;BME280;35268;42.642;23.308;2023-06-10T07:38:14;93560.03;;;20.80;66.38
49393;BME280;35268;42.642;23.308;2023-06-10T07:40:40;93553.88;;;20.87;66.61
49393;BME280;35268;42.642;23.308;2023-06-10T07:43:05;93563.94;;;20.93;66.99
49393;BME280;35268;42.642;23.308;2023-06-10T07:45:31;93558.91;;;20.95;66.63
49393;BME280;35268;42.642;23.308;2023-06-10T07:47:56;93562.38;;;20.99;66.04
49393;BME280;35268;42.642;23.308;2023-06-10T07:50:21;93560.06;;;21.09;67.46
49393;BME280;35268;42.642;23.308;2023-06-10T07:52:47;93566.63;;;21.08;65.26
49393;BME280;35268;42.642;23.308;2023-06-10T07:55:12;93560.44;;;21.07;65.06
49393;BME280;35268;42.642;23.308;2023-06-10T07:57:38;93567.81;;;21.03;64.03
49393;BME280;35268;42.642;23.308;2023-06-10T08:00:04;93565.84;;;21.00;64.56
49393;BME280;35268;42.642;23.308;2023-06-10T08:02:31;93571.66;;;21.02;62.88
49393;BME280;35268;42.642;23.308;2023-06-10T08:04:56;93566.22;;;20.98;63.52
49393;BME280;35268;42.642;23.308;2023-06-10T08:07:21;93565.06;;;20.92;63.44
49393;BME280;35268;42.642;23.308;2023-06-10T08:09:47;93561.59;;;20.88;62.45
49393;BME280;35268;42.642;23.308;2023-06-10T08:12:13;93559.25;;;20.76;60.37
49393;BME280;35268;42.642;23.308;2023-06-10T08:14:38;93566.97;;;20.74;60.82
49393;BME280;35268;42.642;23.308;2023-06-10T08:17:05;93560.03;;;20.80;60.71
49393;BME280;35268;42.642;23.308;2023-06-10T08:19:31;93565.06;;;20.85;59.52
49393;BME280;35268;42.642;23.308;2023-06-10T08:22:30;93561.56;;;20.77;59.54
49393;BME280;35268;42.642;23.308;2023-06-10T08:24:55;93549.97;;;20.84;60.22
49393;BME280;35268;42.642;23.308;2023-06-10T08:27:21;93556.94;;;20.96;60.40
49393;BME280;35268;42.642;23.308;2023-06-10T08:29:46;93545.75;;;20.97;60.91
49393;BME280;35268;42.642;23.308;2023-06-10T08:32:12;93545.34;;;21.06;59.81
49393;BME280;35268;42.642;23.308;2023-06-10T08:34:37;93545.72;;;21.08;58.24
49393;BME280;35268;42.642;23.308;2023-06-10T08:37:03;93534.13;;;21.15;57.75
49393;BME280;35268;42.642;23.308;2023-06-10T08:39:29;93539.16;;;21.20;57.20
49393;BME280;35268;42.642;23.308;2023-06-10T08:44:42;93535.28;;;21.14;54.40
49393;BME280;35268;42.642;23.308;2023-06-10T08:47:13;93543.81;;;21.19;54.36
49393;BME280;35268;42.642;23.308;2023-06-10T08:49:43;93533.34;;;21.36;54.01
49393;BME280;35268;42.642;23.308;2023-06-10T08:52:11;93533.72;;;21.45;51.18
49393;BME280;35268;42.642;23.308;2023-06-10T08:54:43;93532.16;;;21.51;51.10
49393;BME280;35268;42.642;23.308;2023-06-10T08:57:08;93525.19;;;21.61;52.20
49393;BME280;35268;42.642;23.308;2023-06-10T08:59:34;93524.00;;;21.76;53.49
49393;BME280;35268;42.642;23.308;2023-06-10T09:02:01;93515.81;;;21.91;50.43
49393;BME280;35268;42.642;23.308;2023-06-10T09:04:27;93519.66;;;21.97;50.67
49393;BME280;35268;42.642;23.308;2023-06-10T09:06:53;93521.97;;;21.98;51.66
49393;BME280;35268;42.642;23.308;2023-06-10T09:09:21;93516.50;;;22.06;51.99
49393;BME280;35268;42.642;23.308;2023-06-10T09:11:48;93515.31;;;22.10;51.17
49393;BME280;35268;42.642;23.308;2023-06-10T09:14:13;93515.66;;;22.27;50.95
49393;BME280;35268;42.642;23.308;2023-06-10T09:16:40;93507.13;;;22.32;50.72
49393;BME280;35268;42.642;23.308;2023-06-10T09:19:06;93512.47;;;22.42;50.79
49393;BME280;35268;42.642;23.308;2023-06-10T09:21:35;93515.53;;;22.52;49.71
49393;BME280;35268;42.642;23.308;2023-06-10T09:24:05;93513.94;;;22.58;49.73
49393;BME280;35268;42.642;23.308;2023-06-10T09:26:30;93509.28;;;22.62;50.57
49393;BME280;35268;42.642;23.308;2023-06-10T09:29:06;93508.50;;;22.61;49.38
49393;BME280;35268;42.642;23.308;2023-06-10T09:31:35;93508.91;;;22.60;49.26
49393;BME280;35268;42.642;23.308;2023-06-10T09:34:13;93504.97;;;22.68;48.55
49393;BME280;35268;42.642;23.308;2023-06-10T09:36:39;93506.09;;;22.74;49.63
49393;BME280;35268;42.642;23.308;2023-06-10T09:39:13;93494.34;;;22.88;49.80
49393;BME280;35268;42.642;23.308;2023-06-10T09:41:44;93495.81;;;23.00;49.40
49393;BME280;35268;42.642;23.308;2023-06-10T09:44:17;93496.56;;;23.04;48.69
49393;BME280;35268;42.642;23.308;2023-06-10T09:46:45;93498.09;;;23.05;48.71
49393;BME280;35268;42.642;23.308;2023-06-10T09:49:11;93492.53;;;23.23;48.21
49393;BME280;35268;42.642;23.308;2023-06-10T09:51:37;93495.94;;;23.31;47.23
49393;BME280;35268;42.642;23.308;2023-06-10T09:54:03;93487.69;;;23.41;47.87
49393;BME280;35268;42.642;23.308;2023-06-10T09:56:35;93493.38;;;23.54;46.36
49393;BME280;35268;42.642;23.308;2023-06-10T09:59:01;93486.81;;;23.52;46.00
49393;BME280;35268;42.642;23.308;2023-06-10T10:01:27;93479.81;;;23.51;46.30
49393;BME280;35268;42.642;23.308;2023-06-10T10:03:52;93475.78;;;23.66;46.77
49393;BME280;35268;42.642;23.308;2023-06-10T10:06:19;93474.84;;;23.83;46.79
49393;BME280;35268;42.642;23.308;2023-06-10T10:08:46;93476.84;;;24.10;49.07
49393;BME280;35268;42.642;23.308;2023-06-10T10:11:12;93463.28;;;24.34;47.26
49393;BME280;35268;42.642;23.308;2023-06-10T10:13:38;93467.72;;;24.55;45.84
49393;BME280;35268;42.642;23.308;2023-06-10T10:16:10;93461.53;;;24.78;46.52
49393;BME280;35268;42.642;23.308;2023-06-10T10:18:39;93460.47;;;24.95;43.21
49393;BME280;35268;42.642;23.308;2023-06-10T10:21:12;93459.16;;;25.03;41.17
49393;BME280;35268;42.642;23.308;2023-06-10T10:26:18;93452.88;;;25.07;43.03
49393;BME280;35268;42.642;23.308;2023-06-10T10:31:32;93451.09;;;25.43;43.30
49393;BME280;35268;42.642;23.308;2023-06-10T10:34:04;93455.66;;;25.70;42.95
49393;BME280;35268;42.642;23.308;2023-06-10T10:36:32;93463.47;;;25.92;42.91
49393;BME280;35268;42.642;23.308;2023-06-10T10:38:57;93457.06;;;26.18;40.95
49393;BME280;35268;42.642;23.308;2023-06-10T10:41:24;93452.91;;;26.30;38.27
49393;BME280;35268;42.642;23.308;2023-06-10T10:43:51;93457.75;;;26.22;38.27
49393;BME280;35268;42.642;23.308;2023-06-10T10:46:17;93448.06;;;26.01;39.06
49393;BME280;35268;42.642;23.308;2023-06-10T10:48:44;93443.59;;;25.91;39.17
49393;BME280;35268;42.642;23.308;2023-06-10T10:51:10;93436.34;;;26.01;41.15
49393;BME280;35268;42.642;23.308;2023-06-10T10:53:39;93444.50;;;26.21;40.42
49393;BME280;35268;42.642;23.308;2023-06-10T10:56:05;93438.66;;;26.39;39.60
49393;BME280;35268;42.642;23.308;2023-06-10T10:58:32;93434.28;;;26.61;39.74
49393;BME280;35268;42.642;23.308;2023-06-10T11:00:57;93438.72;;;26.88;37.80
49393;BME280;35268;42.642;23.308;2023-06-10T11:03:28;93436.25;;;26.94;37.70
49393;BME280;35268;42.642;23.308;2023-06-10T11:05:56;93433.25;;;27.05;38.68
49393;BME280;35268;42.642;23.308;2023-06-10T11:11:19;93425.56;;;27.32;37.28
49393;BME280;35268;42.642;23.308;2023-06-10T11:16:30;93420.25;;;27.25;35.72
49393;BME280;35268;42.642;23.308;2023-06-10T11:19:03;93408.19;;;27.22;35.96
49393;BME280;35268;42.642;23.308;2023-06-10T11:21:28;93411.28;;;27.08;34.67
49393;BME280;35268;42.642;23.308;2023-06-10T11:24:00;93402.06;;;27.02;34.99
49393;BME280;35268;42.642;23.308;2023-06-10T11:31:26;93390.59;;;27.24;35.96
49393;BME280;35268;42.642;23.308;2023-06-10T11:33:54;93394.81;;;27.41;37.84
49393;BME280;35268;42.642;23.308;2023-06-10T11:36:20;93391.09;;;27.64;38.65
49393;BME280;35268;42.642;23.308;2023-06-10T11:38:46;93392.03;;;27.87;36.80
49393;BME280;35268;42.642;23.308;2023-06-10T11:41:13;93395.13;;;28.14;36.55
49393;BME280;35268;42.642;23.308;2023-06-10T11:43:45;93392.66;;;28.46;35.61
49393;BME280;35268;42.642;23.308;2023-06-10T11:46:12;93385.75;;;28.67;36.20
49393;BME280;35268;42.642;23.308;2023-06-10T11:48:37;93395.81;;;28.70;33.16
49393;BME280;35268;42.642;23.308;2023-06-10T11:51:07;93380.97;;;28.80;32.88
49393;BME280;35268;42.642;23.308;2023-06-10T11:53:33;93377.53;;;29.01;33.76
49393;BME280;35268;42.642;23.308;2023-06-10T11:55:59;93378.00;;;29.35;34.18
49393;BME280;35268;42.642;23.308;2023-06-10T11:58:24;93374.66;;;29.75;32.52
49393;BME280;35268;42.642;23.308;2023-06-10T12:00:55;93385.22;;;30.08;32.19
49393;BME280;35268;42.642;23.308;2023-06-10T12:03:23;93381.81;;;30.26;31.05
49393;BME280;35268;42.642;23.308;2023-06-10T12:08:23;93380.91;;;30.60;30.31
49393;BME280;35268;42.642;23.308;2023-06-10T12:10:49;93382.63;;;30.76;29.57
49393;BME280;35268;42.642;23.308;2023-06-10T12:13:15;93382.63;;;30.85;28.91
49393;BME280;35268;42.642;23.308;2023-06-10T12:15:43;93383.44;;;30.86;28.24
49393;BME280;35268;42.642;23.308;2023-06-10T12:18:18;93377.09;;;30.57;28.29
49393;BME280;35268;42.642;23.308;2023-06-10T12:20:44;93381.66;;;30.51;30.34
49393;BME280;35268;42.642;23.308;2023-06-10T12:23:10;93376.22;;;30.38;30.26
49393;BME280;35268;42.642;23.308;2023-06-10T12:25:36;93368.19;;;30.22;30.38
49393;BME280;35268;42.642;23.308;2023-06-10T12:28:02;93370.19;;;29.90;30.41
49393;BME280;35268;42.642;23.308;2023-06-10T12:30:28;93370.25;;;29.55;31.79
49393;BME280;35268;42.642;23.308;2023-06-10T12:32:53;93373.22;;;29.26;32.31
49393;BME280;35268;42.642;23.308;2023-06-10T12:35:26;93365.63;;;28.83;32.41
49393;BME280;35268;42.642;23.308;2023-06-10T12:38:02;93357.88;;;28.55;33.26
49393;BME280;35268;42.642;23.308;2023-06-10T12:40:29;93348.78;;;28.58;32.88
49393;BME280;35268;42.642;23.308;2023-06-10T12:42:56;93356.78;;;28.66;32.91
49393;BME280;35268;42.642;23.308;2023-06-10T12:45:35;93354.50;;;28.64;31.91
49393;BME280;35268;42.642;23.308;2023-06-10T12:50:41;93351.00;;;28.51;33.63
49393;BME280;35268;42.642;23.308;2023-06-10T12:53:07;93351.06;;;28.47;32.83
49393;BME280;35268;42.642;23.308;2023-06-10T12:55:33;93355.47;;;28.32;32.41
49393;BME280;35268;42.642;23.308;2023-06-10T12:58:00;93354.59;;;28.22;32.11
49393;BME280;35268;42.642;23.308;2023-06-10T13:00:26;93357.31;;;27.96;31.85
49393;BME280;35268;42.642;23.308;2023-06-10T13:02:59;93361.22;;;27.83;31.75
49393;BME280;35268;42.642;23.308;2023-06-10T13:05:26;93359.09;;;27.61;33.24
49393;BME280;35268;42.642;23.308;2023-06-10T13:07:51;93356.72;;;27.34;33.36
49393;BME280;35268;42.642;23.308;2023-06-10T13:10:17;93362.47;;;27.07;32.78
49393;BME280;35268;42.642;23.308;2023-06-10T13:12:44;93362.03;;;26.79;33.99
49393;BME280;35268;42.642;23.308;2023-06-10T13:15:10;93361.69;;;26.60;34.94